createdAt,value
2023-10-06T00:06:42.992Z,3.00
2023-10-06T00:19:42.983Z,3.00
2023-10-06T00:32:42.998Z,2.80
2023-10-06T00:45:42.993Z,2.90
2023-10-06T00:58:43.041Z,2.70
2023-10-06T01:11:43.057Z,2.80
2023-10-06T01:24:43.054Z,2.90
2023-10-06T01:37:43.088Z,2.70
2023-10-06T01:50:43.089Z,2.80
2023-10-06T02:03:43.130Z,3.00
2023-10-06T02:16:43.150Z,3.00
2023-10-06T02:29:43.110Z,2.50
2023-10-06T02:42:43.136Z,2.70
2023-10-06T02:55:43.196Z,2.80
2023-10-06T03:08:43.243Z,2.70
2023-10-06T03:21:43.190Z,2.90
2023-10-06T03:34:43.237Z,2.80
2023-10-06T03:47:43.229Z,2.80
2023-10-06T04:00:43.244Z,2.80
2023-10-06T04:13:43.277Z,2.90
2023-10-06T04:26:43.302Z,2.90
2023-10-06T04:39:43.411Z,2.80
2023-10-06T04:52:43.456Z,3.00
2023-10-06T05:05:43.436Z,2.80
2023-10-06T05:19:43.459Z,3.00
2023-10-06T05:33:43.473Z,2.90
2023-10-06T05:48:43.470Z,2.80
2023-10-06T06:02:43.567Z,3.00
2023-10-06T06:15:43.521Z,2.80
2023-10-06T06:28:43.690Z,2.90
2023-10-06T06:41:43.704Z,4.00
2023-10-06T06:54:43.703Z,4.20
2023-10-06T07:07:43.674Z,4.20
2023-10-06T07:20:43.727Z,4.10
2023-10-06T07:33:43.738Z,4.50
2023-10-06T07:46:43.782Z,4.40
2023-10-06T07:59:43.794Z,4.60
2023-10-06T08:12:43.833Z,3.90
2023-10-06T08:25:57.128Z,4.10
2023-10-06T08:38:44.188Z,3.60
2023-10-06T08:51:44.297Z,3.20
2023-10-06T09:04:43.910Z,3.20
2023-10-06T09:17:43.917Z,3.20
2023-10-06T09:30:44.039Z,3.10
2023-10-06T09:43:43.939Z,3.30
2023-10-06T09:57:43.928Z,3.10
2023-10-06T10:11:44.037Z,3.70
2023-10-06T10:25:43.970Z,3.30
2023-10-06T10:39:43.949Z,2.60
2023-10-06T10:53:43.986Z,2.50
2023-10-06T11:07:44.027Z,2.70
2023-10-06T11:21:44.053Z,2.70
2023-10-06T11:35:44.041Z,2.60
2023-10-06T11:49:44.048Z,2.40
2023-10-06T12:03:44.246Z,3.10
2023-10-06T12:17:44.177Z,3.10
2023-10-06T12:31:44.127Z,2.60
2023-10-06T12:44:44.349Z,2.70
2023-10-06T12:57:44.194Z,2.60
2023-10-06T13:10:44.173Z,2.30
2023-10-06T13:24:44.176Z,2.40
2023-10-06T13:38:44.202Z,2.40
2023-10-06T13:52:44.278Z,2.40
2023-10-06T14:06:44.269Z,2.40
2023-10-06T14:20:44.282Z,2.50
2023-10-06T14:34:44.284Z,12.40
2023-10-06T14:48:44.334Z,3.00
2023-10-06T15:02:44.394Z,2.50
2023-10-06T15:16:44.337Z,2.60
2023-10-06T15:30:44.461Z,2.50
2023-10-06T15:44:44.464Z,2.40
2023-10-06T15:59:44.462Z,2.30
2023-10-06T16:13:44.543Z,2.00
2023-10-06T16:27:44.529Z,2.20
2023-10-06T16:41:44.583Z,2.20
2023-10-06T16:55:44.646Z,2.10
2023-10-06T17:09:44.716Z,2.30
2023-10-06T17:24:44.774Z,2.00
2023-10-06T17:38:44.774Z,2.10
2023-10-06T17:51:44.802Z,2.10
2023-10-06T18:04:44.822Z,2.30
2023-10-06T18:17:44.808Z,2.10
2023-10-06T18:30:44.853Z,2.10
2023-10-06T18:43:44.915Z,2.00
2023-10-06T18:56:44.928Z,1.90
2023-10-06T19:09:44.957Z,1.80
2023-10-06T19:22:44.980Z,1.90
2023-10-06T19:35:44.960Z,2.10
2023-10-06T19:48:44.977Z,5.20
2023-10-06T20:01:46.379Z,26.30
2023-10-06T20:14:45.118Z,21.40
2023-10-06T20:27:45.149Z,18.30
2023-10-06T20:40:45.394Z,16.10
2023-10-06T20:53:45.333Z,13.40
2023-10-06T21:06:45.352Z,11.20
2023-10-06T21:19:45.443Z,10.40
2023-10-06T21:32:45.608Z,9.30
2023-10-06T21:45:45.427Z,7.90
2023-10-06T21:58:45.462Z,6.70
2023-10-06T22:11:45.447Z,5.90
2023-10-06T22:24:45.430Z,5.10
2023-10-06T22:37:45.492Z,4.60
2023-10-06T22:50:45.446Z,4.60
2023-10-06T23:03:45.618Z,4.10
2023-10-06T23:16:45.538Z,3.60
2023-10-06T23:29:45.538Z,3.50
2023-10-06T23:42:45.584Z,3.30
2023-10-06T23:55:45.631Z,3.00
